Airfield :
LOGIN :

Register | Disclaimer

   EN    FR    IT 

 










Legend :    VFR   Marginal VFR   IFR   Intensive IFR   Very Intensive IFR
Visi :
Ceiling :
>= 8 km
>= 3000ft
5 to 8 km
1000 to 3000 ft
1500m to 5 km
500 to 1000 ft
800 to 1500m
200 to 500 ft
< 800m
< 200 ft
Symbols :   Thunderstorms  Fog  Heavy snow  Heavy precipitations  Wind > 20 kt
SIGMETs :     Misc.  Thunderstorms  Icing  Turbulence  Mountain Waves  Volcanic Ashes







- Airport Elevation : 505 ft
- IATA code : SXB
- Download approach charts


LFST - Strasbourg

CURRENT METAR :
  • 181000Z AUTO 04011KT CAVOK 05/M01 Q1023 NOSIG

EXPIRED METARs :
  • 180930Z AUTO 03012KT CAVOK 04/M01 Q1023 NOSIG
  • 180900Z AUTO 03012KT CAVOK 04/M01 Q1023 NOSIG
  • 180830Z AUTO 03012KT CAVOK 03/M02 Q1023 NOSIG
  • 180800Z AUTO 03014KT CAVOK 02/M02 Q1024 NOSIG
  • 180730Z AUTO 03012KT CAVOK 02/M02 Q1024 NOSIG

TAF TAF LFST
Valid from the 18 at 06:00 until the 19 at 06:00 UTC


180500Z 1806/1906 03012KT CAVOK
TEMPO 1900/1906 03015G25KT
No reported NOTAMs for that airfield.



MET'MAP, your aeronautical weather chart ! - Copyright ORBIFLY December 2007 - Disclaimer

ORBIFLY MET'MAP TEAM :

Programming & Development : Alexandra Zaïnal
Concept & Development : Baudouin d'Aumeries
Co-Development & Prog : Marc-Olivier Méhu
Technical & hardware support : Manuel Goepfert

Contact : metmap@orbifly.com




SOURCES & CREDITS :

   NOAA